Time;durP1;ratioP1;P1;durP2;ratioP2;P2;SDS_P1;SDS_P2;PMS_P1;PMS_P2;Temp;Humidity;BMP_temperature;BMP_pressure;BME280_temperature;BME280_humidity;BME280_pressure;Samples;Min_cycle;Max_cycle;Signal;HPM_P1;HPM_P2
2021/09/27 00:00:20;;;;;;;13.63;5.53;;;9.20;99.90;;;;;;4976813;28;20030;-76
2021/09/27 00:02:45;;;;;;;11.85;5.97;;;9.20;99.90;;;;;;4977734;28;20034;-76
2021/09/27 00:05:14;;;;;;;12.50;5.97;;;9.20;99.90;;;;;;4989610;28;20033;-76
2021/09/27 00:07:40;;;;;;;13.98;6.55;;;9.10;99.90;;;;;;4993880;28;20515;-76
2021/09/27 00:10:07;;;;;;;11.23;5.97;;;9.00;99.90;;;;;;4975934;28;20037;-76
2021/09/27 00:12:33;;;;;;;10.73;6.35;;;9.00;99.90;;;;;;4975030;28;20093;-76
2021/09/27 00:15:00;;;;;;;12.07;6.28;;;9.00;99.90;;;;;;4974887;28;20400;-76
2021/09/27 00:17:26;;;;;;;12.18;6.22;;;8.90;99.90;;;;;;4977255;28;20081;-77
2021/09/27 00:19:52;;;;;;;10.57;5.93;;;8.90;99.90;;;;;;4974879;28;20030;-76
2021/09/27 00:22:17;;;;;;;12.13;6.03;;;8.90;99.90;;;;;;4990280;28;20052;-77
2021/09/27 00:24:43;;;;;;;11.65;6.00;;;8.90;99.90;;;;;;4981780;28;20480;-76
2021/09/27 00:27:09;;;;;;;10.65;5.78;;;8.80;99.90;;;;;;4976666;28;20043;-75
2021/09/27 00:29:35;;;;;;;11.38;5.68;;;8.80;99.90;;;;;;4985540;28;20027;-74
2021/09/27 00:32:00;;;;;;;11.82;5.80;;;8.80;99.90;;;;;;4982858;28;20046;-74
2021/09/27 00:34:26;;;;;;;13.23;5.93;;;8.80;99.90;;;;;;4978714;28;20027;-74
2021/09/27 00:36:52;;;;;;;10.68;5.30;;;8.90;99.90;;;;;;4988961;28;20137;-74
2021/09/27 00:39:17;;;;;;;10.40;5.40;;;9.00;99.90;;;;;;4988202;28;20022;-74
2021/09/27 00:41:44;;;;;;;9.30;5.07;;;9.00;99.90;;;;;;4987758;28;20382;-74
2021/09/27 00:44:09;;;;;;;8.77;4.95;;;9.10;99.90;;;;;;4988896;28;20134;-75
2021/09/27 00:46:35;;;;;;;9.23;5.20;;;9.10;99.90;;;;;;4994116;28;20125;-75
2021/09/27 00:49:03;;;;;;;14.63;5.70;;;9.00;99.90;;;;;;4988797;28;20380;-75
2021/09/27 00:51:41;;;;;;;9.90;4.80;;;9.00;99.90;;;;;;4985650;28;20037;-76
2021/09/27 00:54:18;;;;;;;9.48;4.53;;;9.00;99.90;;;;;;4981912;28;20073;-76
2021/09/27 00:56:52;;;;;;;10.18;5.03;;;8.90;99.90;;;;;;4984700;28;20019;-75
2021/09/27 00:59:20;;;;;;;10.93;5.53;;;8.90;99.90;;;;;;4981067;28;20030;-74
2021/09/27 01:01:46;;;;;;;11.38;5.18;;;8.90;99.90;;;;;;4984949;28;20121;-75
2021/09/27 01:04:12;;;;;;;9.55;4.90;;;8.90;99.90;;;;;;4976140;28;20074;-73
2021/09/27 01:07:01;;;;;;;8.43;5.05;;;8.90;99.90;;;;;;4978924;28;20034;-73
2021/09/27 01:09:39;;;;;;;11.13;4.88;;;8.90;99.90;;;;;;4984483;28;20514;-75
2021/09/27 01:12:27;;;;;;;7.68;4.25;;;8.80;99.90;;;;;;4987958;28;20463;-73
2021/09/27 01:15:14;;;;;;;9.05;3.97;;;8.90;99.90;;;;;;4988050;28;20027;-73
2021/09/27 01:17:47;;;;;;;8.10;4.43;;;8.90;99.90;;;;;;4990946;28;20033;-73
2021/09/27 01:20:25;;;;;;;10.30;4.43;;;8.90;99.90;;;;;;4988795;28;20061;-75
2021/09/27 01:23:02;;;;;;;10.82;4.38;;;9.00;99.90;;;;;;4988763;28;20027;-75
2021/09/27 01:25:50;;;;;;;9.27;4.57;;;8.90;99.90;;;;;;4993582;28;20053;-74
2021/09/27 01:28:53;;;;;;;8.02;4.10;;;8.90;99.90;;;;;;4992523;28;20033;-76
2021/09/27 01:31:47;;;;;;;8.68;4.70;;;8.80;99.90;;;;;;4987708;28;20495;-75
2021/09/27 01:34:22;;;;;;;10.18;4.32;;;8.80;99.90;;;;;;4927492;29;20036;-76
2021/09/27 01:36:54;;;;;;;8.30;4.22;;;8.80;99.90;;;;;;4924122;29;20024;-75
2021/09/27 01:39:29;;;;;;;9.18;4.63;;;8.80;99.90;;;;;;4923953;29;20052;-76
2021/09/27 01:42:09;;;;;;;8.05;3.90;;;8.80;99.90;;;;;;4930536;29;20059;-76
2021/09/27 01:45:00;;;;;;;7.93;3.60;;;8.80;99.90;;;;;;4927564;29;20055;-76
2021/09/27 01:47:37;;;;;;;14.30;4.25;;;8.70;99.90;;;;;;4927559;29;20051;-75
2021/09/27 01:50:16;;;;;;;8.93;4.47;;;8.70;99.90;;;;;;4931235;29;20059;-75
2021/09/27 01:53:06;;;;;;;9.30;4.13;;;8.70;99.90;;;;;;4922121;29;20036;-76
2021/09/27 01:55:40;;;;;;;7.22;3.53;;;8.70;99.90;;;;;;4913954;29;20123;-75
2021/09/27 01:58:18;;;;;;;7.78;3.78;;;8.70;99.90;;;;;;4928956;29;20055;-76
2021/09/27 02:00:49;;;;;;;6.32;3.55;;;8.70;99.90;;;;;;4928557;29;20127;-76
2021/09/27 02:03:18;;;;;;;10.68;5.00;;;8.70;99.90;;;;;;4928662;29;20541;-76
2021/09/27 02:06:16;;;;;;;12.18;4.03;;;8.70;99.90;;;;;;4931949;29;20046;-76
2021/09/27 02:09:07;;;;;;;8.80;3.85;;;8.70;99.90;;;;;;4931437;29;20031;-75
2021/09/27 02:11:39;;;;;;;7.70;3.83;;;8.70;99.90;;;;;;4974570;28;20074;-75
2021/09/27 02:14:34;;;;;;;7.05;3.80;;;8.60;99.90;;;;;;4984967;28;20128;-75
2021/09/27 02:17:14;;;;;;;8.90;3.97;;;8.60;99.90;;;;;;4989197;28;20039;-75
2021/09/27 02:20:10;;;;;;;7.93;4.00;;;8.50;99.90;;;;;;4988733;28;20030;-76
2021/09/27 02:22:42;;;;;;;8.25;3.65;;;8.50;99.90;;;;;;4987781;28;20483;-76
2021/09/27 02:25:17;;;;;;;9.77;4.13;;;8.50;99.90;;;;;;4976265;28;20027;-77
2021/09/27 02:27:45;;;;;;;8.07;3.20;;;8.40;99.90;;;;;;4980695;28;20107;-74
2021/09/27 02:30:15;;;;;;;8.52;3.70;;;8.40;99.90;;;;;;4984191;28;20052;-76
2021/09/27 02:33:07;;;;;;;8.30;4.00;;;8.40;99.90;;;;;;4980350;28;20121;-75
2021/09/27 02:35:40;;;;;;;11.82;3.88;;;8.30;99.90;;;;;;4991337;28;20092;-76
2021/09/27 02:38:19;;;;;;;7.10;3.45;;;8.20;99.90;;;;;;4984727;28;20077;-75
2021/09/27 02:41:09;;;;;;;7.05;4.07;;;8.20;99.90;;;;;;4984015;28;20035;-76
2021/09/27 02:43:34;;;;;;;6.97;3.47;;;8.10;99.90;;;;;;4988813;28;20037;-75
2021/09/27 02:46:00;;;;;;;9.95;4.10;;;8.00;99.90;;;;;;4984861;28;20038;-76
2021/09/27 02:48:34;;;;;;;7.68;3.83;;;8.00;99.90;;;;;;4985388;28;20137;-75
2021/09/27 02:51:00;;;;;;;10.07;4.13;;;8.00;99.90;;;;;;4990611;28;20463;-76
2021/09/27 02:53:26;;;;;;;5.72;3.70;;;8.00;99.90;;;;;;4988047;28;20031;-76
2021/09/27 02:56:10;;;;;;;6.43;3.80;;;7.90;99.90;;;;;;4984570;28;20479;-75
2021/09/27 02:58:38;;;;;;;8.45;3.60;;;7.80;99.90;;;;;;4991185;28;20037;-75
2021/09/27 03:01:18;;;;;;;6.75;3.50;;;7.80;99.90;;;;;;4988547;28;20039;-75
2021/09/27 03:04:08;;;;;;;5.80;2.90;;;7.80;99.90;;;;;;4987070;28;20082;-74
2021/09/27 03:06:47;;;;;;;8.97;3.70;;;7.80;99.90;;;;;;4980877;28;20034;-76
2021/09/27 03:09:51;;;;;;;7.95;3.92;;;7.80;99.90;;;;;;4986148;28;20093;-76
2021/09/27 03:12:33;;;;;;;8.32;3.88;;;7.80;99.90;;;;;;4978505;28;20034;-76
2021/09/27 03:15:23;;;;;;;9.95;4.03;;;7.80;99.90;;;;;;4980913;28;20060;-75
2021/09/27 03:18:24;;;;;;;8.88;4.32;;;7.90;99.90;;;;;;4988459;28;20133;-76
2021/09/27 03:20:49;;;;;;;;;;;8.00;99.90;;;;;;4980883;28;20050;-76
2021/09/27 03:23:24;;;;;;;9.75;4.45;;;8.00;99.90;;;;;;4990077;28;19917;-76
2021/09/27 03:26:05;;;;;;;11.77;4.28;;;8.00;99.90;;;;;;4986849;28;20442;-75
2021/09/27 03:28:36;;;;;;;;;;;8.10;99.90;;;;;;4989743;28;20451;-75
2021/09/27 03:31:02;;;;;;;6.28;3.65;;;8.20;99.90;;;;;;4983989;28;19918;-75
2021/09/27 03:33:27;;;;;;;10.40;5.10;;;8.20;99.90;;;;;;4980251;28;20019;-75
2021/09/27 03:36:02;;;;;;;7.93;4.55;;;8.20;99.90;;;;;;4981901;28;20471;-76
2021/09/27 03:38:37;;;;;;;7.45;4.10;;;8.30;99.90;;;;;;4982436;28;20391;-75
2021/09/27 03:41:19;;;;;;;10.70;4.45;;;8.20;99.90;;;;;;4993321;28;20034;-75
2021/09/27 03:44:06;;;;;;;10.27;4.63;;;8.20;99.90;;;;;;4992017;28;20030;-76
2021/09/27 03:46:58;;;;;;;11.95;4.90;;;8.10;99.90;;;;;;4990094;28;20054;-76
2021/09/27 03:50:09;;;;;;;8.27;3.75;;;8.00;99.90;;;;;;4994565;28;20123;-75
2021/09/27 03:52:40;;;;;;;6.50;4.55;;;8.00;99.90;;;;;;4985617;28;20042;-74
2021/09/27 03:55:16;;;;;;;9.63;4.40;;;7.90;99.90;;;;;;4988749;28;20090;-75
2021/09/27 03:58:02;;;;;;;11.18;4.45;;;7.90;99.90;;;;;;4987154;28;20467;-75
2021/09/27 04:00:37;;;;;;;9.35;4.43;;;7.80;99.90;;;;;;4987060;28;20034;-75
2021/09/27 04:03:06;;;;;;;8.07;4.35;;;7.80;99.90;;;;;;4990371;28;20062;-76
2021/09/27 04:05:59;;;;;;;11.15;4.40;;;7.80;99.90;;;;;;4980836;28;20106;-77
2021/09/27 04:08:47;;;;;;;10.40;4.88;;;7.80;99.90;;;;;;4982299;28;20389;-77
2021/09/27 04:11:21;;;;;;;9.23;4.30;;;7.80;99.90;;;;;;4989349;28;20037;-77
2021/09/27 04:14:04;;;;;;;9.70;4.60;;;7.70;99.90;;;;;;4990188;28;20070;-77
2021/09/27 04:16:47;;;;;;;8.32;4.45;;;7.80;99.90;;;;;;4990761;28;20422;-76
2021/09/27 04:19:22;;;;;;;10.35;4.32;;;7.80;99.90;;;;;;4993780;28;20034;-76
2021/09/27 04:21:55;;;;;;;6.22;3.53;;;7.90;99.90;;;;;;4992065;28;20030;-77
2021/09/27 04:24:31;;;;;;;9.43;5.28;;;7.90;99.90;;;;;;4992344;28;20045;-76
2021/09/27 04:27:15;;;;;;;8.95;4.00;;;8.00;99.90;;;;;;4992397;28;20853;-74
2021/09/27 04:29:52;;;;;;;8.18;4.18;;;8.10;99.90;;;;;;4985805;28;20434;-76
2021/09/27 04:32:21;;;;;;;11.07;4.78;;;8.10;99.90;;;;;;4984463;28;20566;-76
2021/09/27 04:35:02;;;;;;;10.70;4.63;;;8.20;99.90;;;;;;4989786;28;20767;-75
2021/09/27 04:37:29;;;;;;;10.05;3.72;;;8.20;99.90;;;;;;4993883;28;20165;-75
2021/09/27 04:39:55;;;;;;;9.32;4.90;;;8.20;99.90;;;;;;4987703;28;20026;-76
2021/09/27 04:42:25;;;;;;;8.15;4.32;;;8.20;99.90;;;;;;4988297;28;20019;-74
2021/09/27 04:44:53;;;;;;;7.55;4.45;;;8.20;99.90;;;;;;4983769;28;20030;-74
2021/09/27 04:47:47;;;;;;;10.82;4.43;;;8.30;99.90;;;;;;4990443;28;20613;-76
2021/09/27 04:50:23;;;;;;;7.97;4.35;;;8.30;99.90;;;;;;4973811;28;20085;-76
2021/09/27 04:53:29;;;;;;;9.80;4.03;;;8.30;99.90;;;;;;4992373;28;20046;-74
2021/09/27 04:56:01;;;;;;;8.20;4.47;;;8.40;99.90;;;;;;4988220;28;20422;-76
2021/09/27 04:58:37;;;;;;;13.45;4.63;;;8.50;99.90;;;;;;4991258;28;20483;-75
2021/09/27 05:01:26;;;;;;;8.07;4.43;;;8.60;99.90;;;;;;4990436;28;20599;-74
2021/09/27 05:04:11;;;;;;;8.15;4.93;;;8.60;99.90;;;;;;4979538;28;20092;-74
2021/09/27 05:07:11;;;;;;;7.22;4.70;;;8.60;99.90;;;;;;4983191;28;20511;-74
2021/09/27 05:10:14;;;;;;;12.50;5.38;;;8.70;99.90;;;;;;4988176;28;20026;-76
2021/09/27 05:12:55;;;;;;;15.52;4.97;;;8.80;99.90;;;;;;4981876;28;20530;-74
2021/09/27 05:15:23;;;;;;;11.52;5.45;;;8.90;99.90;;;;;;4985794;28;20057;-74
2021/09/27 05:18:09;;;;;;;9.50;4.82;;;8.90;99.90;;;;;;4989412;28;20035;-76
2021/09/27 05:20:50;;;;;;;8.52;4.65;;;9.00;99.90;;;;;;4991435;28;20056;-76
2021/09/27 05:23:25;;;;;;;;;;;9.10;99.90;;;;;;4977565;28;20026;-75
2021/09/27 05:25:57;;;;;;;8.95;5.05;;;9.20;99.90;;;;;;4983434;28;19910;-73
2021/09/27 05:28:31;;;;;;;9.13;4.97;;;9.30;99.90;;;;;;4987782;28;20396;-74
2021/09/27 05:31:18;;;;;;;9.15;5.07;;;9.40;99.90;;;;;;4986230;28;20133;-75
2021/09/27 05:34:07;;;;;;;9.57;4.70;;;9.50;99.90;;;;;;4981280;28;20034;-74
2021/09/27 05:36:54;;;;;;;11.90;5.05;;;9.60;99.90;;;;;;4988185;28;20113;-75
2021/09/27 05:39:38;;;;;;;10.70;5.20;;;9.70;99.90;;;;;;4988086;28;20067;-75
2021/09/27 05:42:22;;;;;;;10.73;5.15;;;9.80;99.90;;;;;;4981863;28;20038;-75
2021/09/27 05:44:59;;;;;;;13.15;5.88;;;9.90;99.90;;;;;;4987635;28;20077;-75
2021/09/27 05:47:49;;;;;;;8.73;4.55;;;10.10;99.90;;;;;;4990093;28;20085;-76
2021/09/27 05:50:30;;;;;;;15.40;4.55;;;10.10;99.90;;;;;;4980667;28;20038;-74
2021/09/27 05:53:15;;;;;;;10.13;4.43;;;10.30;99.90;;;;;;4989381;28;20037;-74
2021/09/27 05:55:58;;;;;;;7.85;4.60;;;10.40;99.90;;;;;;4990718;28;20034;-74
2021/09/27 05:58:32;;;;;;;11.43;4.75;;;10.40;99.90;;;;;;4982932;28;20121;-76
2021/09/27 06:01:00;;;;;;;9.68;5.43;;;10.50;99.90;;;;;;4986082;28;20034;-75
2021/09/27 06:03:42;;;;;;;10.13;4.85;;;10.60;99.90;;;;;;4982586;28;20043;-74
2021/09/27 06:06:12;;;;;;;9.70;4.97;;;10.70;99.90;;;;;;4981151;28;20037;-74
2021/09/27 06:08:50;;;;;;;11.27;5.25;;;10.80;99.90;;;;;;4982782;28;20030;-74
2021/09/27 06:11:37;;;;;;;12.48;4.88;;;10.90;99.90;;;;;;4991000;28;20729;-74
2021/09/27 06:14:04;;;;;;;12.65;4.78;;;11.00;99.90;;;;;;4990469;28;20034;-74
2021/09/27 06:16:54;;;;;;;10.75;4.63;;;11.10;99.90;;;;;;4992424;28;20034;-74
2021/09/27 06:19:44;;;;;;;9.63;4.60;;;11.20;99.90;;;;;;4991846;28;20034;-73
2021/09/27 06:22:24;;;;;;;7.43;4.50;;;11.30;99.90;;;;;;4983021;28;20395;-73
2021/09/27 06:25:14;;;;;;;7.82;4.20;;;11.50;99.90;;;;;;4988168;28;20065;-74
2021/09/27 06:27:59;;;;;;;8.57;4.40;;;11.60;99.90;;;;;;4989424;28;20030;-75
2021/09/27 06:30:42;;;;;;;9.07;4.57;;;11.70;99.90;;;;;;4989700;28;20483;-74
2021/09/27 06:33:27;;;;;;;6.50;3.28;;;11.70;99.90;;;;;;4989644;28;20054;-73
2021/09/27 06:35:53;;;;;;;8.95;4.70;;;11.80;99.90;;;;;;4989406;28;20036;-75
2021/09/27 06:38:27;;;;;;;12.13;4.15;;;11.90;99.90;;;;;;4989576;28;20504;-74
2021/09/27 06:40:53;;;;;;;11.52;4.18;;;12.10;99.90;;;;;;4991647;28;20484;-75
2021/09/27 06:43:22;;;;;;;7.00;3.47;;;12.10;99.90;;;;;;4991146;28;20050;-74
2021/09/27 06:45:49;;;;;;;9.40;4.32;;;12.30;99.90;;;;;;4985881;28;20053;-75
2021/09/27 06:48:14;;;;;;;11.20;4.43;;;12.40;99.90;;;;;;4986267;28;20101;-76
2021/09/27 06:50:41;;;;;;;8.15;3.92;;;12.50;99.90;;;;;;4986800;28;20046;-76
2021/09/27 06:53:06;;;;;;;8.30;3.50;;;12.60;99.90;;;;;;4984191;28;20384;-75
2021/09/27 06:55:32;;;;;;;14.60;3.70;;;12.60;99.90;;;;;;4992099;28;20067;-74
2021/09/27 06:57:58;;;;;;;10.00;4.03;;;12.70;99.90;;;;;;4989378;28;20418;-74
2021/09/27 07:00:24;;;;;;;8.57;3.35;;;12.80;99.90;;;;;;4989123;28;20022;-74
2021/09/27 07:02:50;;;;;;;5.55;2.80;;;12.90;99.90;;;;;;4989068;28;20484;-75
2021/09/27 07:05:15;;;;;;;9.93;3.35;;;13.00;99.90;;;;;;4981973;28;20030;-74
2021/09/27 07:07:42;;;;;;;5.70;2.60;;;13.10;99.90;;;;;;4986999;28;20073;-75
2021/09/27 07:10:11;;;;;;;6.18;2.70;;;13.30;99.90;;;;;;4990189;28;20060;-74
2021/09/27 07:12:38;;;;;;;8.32;3.33;;;13.30;99.90;;;;;;4985485;28;20511;-74
2021/09/27 07:15:04;;;;;;;7.57;3.20;;;13.40;99.90;;;;;;4989338;28;20370;-75
2021/09/27 07:17:30;;;;;;;5.97;2.70;;;13.50;99.90;;;;;;4993433;28;20030;-73
2021/09/27 07:19:55;;;;;;;7.30;2.80;;;13.60;99.90;;;;;;4993916;28;20031;-74
2021/09/27 07:22:22;;;;;;;7.35;3.30;;;13.60;99.90;;;;;;4982773;28;20022;-75
2021/09/27 07:24:47;;;;;;;6.72;2.58;;;13.70;99.90;;;;;;4996608;28;20116;-74
2021/09/27 07:27:13;;;;;;;6.65;2.72;;;13.90;99.90;;;;;;4997933;28;20093;-75
2021/09/27 07:29:39;;;;;;;6.35;1.90;;;13.90;99.90;;;;;;4983792;28;20030;-74
2021/09/27 07:32:05;;;;;;;7.05;2.83;;;14.00;99.90;;;;;;4992801;28;20038;-74
2021/09/27 07:34:30;;;;;;;11.60;2.70;;;14.10;99.90;;;;;;4986926;28;20548;-75
2021/09/27 07:36:57;;;;;;;8.65;2.95;;;14.10;99.90;;;;;;4987882;28;20119;-74
2021/09/27 07:39:24;;;;;;;4.82;2.08;;;14.10;99.90;;;;;;4986444;28;20038;-74
2021/09/27 07:41:49;;;;;;;5.18;2.40;;;14.20;99.90;;;;;;4994046;28;20026;-74
2021/09/27 07:44:15;;;;;;;4.80;2.15;;;14.20;99.90;;;;;;4992625;28;20037;-74
2021/09/27 07:46:41;;;;;;;6.13;2.47;;;14.30;99.90;;;;;;4993969;28;20042;-74
2021/09/27 07:49:07;;;;;;;6.43;2.45;;;14.40;99.90;;;;;;4987322;28;20396;-74
2021/09/27 07:51:33;;;;;;;5.00;1.58;;;14.50;99.90;;;;;;4985978;28;20034;-74
2021/09/27 07:53:59;;;;;;;4.50;1.92;;;14.60;99.90;;;;;;4984751;28;20507;-75
2021/09/27 07:56:25;;;;;;;5.28;1.83;;;14.60;99.90;;;;;;4977244;28;20044;-74
2021/09/27 07:58:51;;;;;;;5.07;2.08;;;14.60;99.90;;;;;;4994797;28;20065;-76
2021/09/27 08:01:17;;;;;;;5.60;2.15;;;14.70;99.90;;;;;;4993640;28;20117;-77
2021/09/27 08:03:43;;;;;;;5.18;1.80;;;14.80;99.90;;;;;;4989816;28;20419;-76
2021/09/27 08:06:09;;;;;;;5.70;1.88;;;14.80;99.90;;;;;;4991585;28;20034;-76
2021/09/27 08:08:35;;;;;;;5.75;1.75;;;14.90;99.90;;;;;;4985948;28;20034;-76
2021/09/27 08:11:00;;;;;;;3.88;1.55;;;15.00;99.90;;;;;;4975391;28;20038;-76
2021/09/27 08:13:26;;;;;;;7.35;1.73;;;15.00;99.90;;;;;;4993681;28;20023;-76
2021/09/27 08:15:54;;;;;;;2.78;1.33;;;15.00;99.90;;;;;;4992519;28;20027;-76
2021/09/27 08:18:22;;;;;;;5.20;1.83;;;15.10;99.90;;;;;;4990676;28;20555;-76
2021/09/27 08:20:57;;;;;;;9.27;2.30;;;15.20;99.90;;;;;;4982970;28;20565;-77
2021/09/27 08:23:24;;;;;;;5.15;2.95;;;15.30;99.90;;;;;;4989305;28;20487;-76
2021/09/27 08:25:51;;;;;;;6.63;2.50;;;15.40;99.90;;;;;;4978404;28;20027;-76
2021/09/27 08:28:20;;;;;;;5.85;1.48;;;15.50;99.90;;;;;;4993097;28;20027;-76
2021/09/27 08:31:00;;;;;;;6.05;1.38;;;15.60;99.90;;;;;;4991232;28;20088;-76
2021/09/27 08:33:27;;;;;;;2.83;1.42;;;15.80;99.90;;;;;;4990314;28;20053;-74
2021/09/27 08:35:54;;;;;;;4.13;1.73;;;15.80;99.90;;;;;;4988422;28;20498;-76
2021/09/27 08:38:23;;;;;;;6.20;1.58;;;15.90;99.90;;;;;;4990548;28;20073;-76
2021/09/27 08:41:02;;;;;;;5.22;2.05;;;15.90;99.90;;;;;;4988068;28;20091;-76
2021/09/27 08:43:43;;;;;;;7.27;1.50;;;16.00;99.90;;;;;;4994952;28;20026;-76
2021/09/27 08:46:16;;;;;;;5.03;1.30;;;16.00;99.90;;;;;;4989857;28;20105;-76
2021/09/27 08:48:49;;;;;;;3.28;1.20;;;16.00;99.90;;;;;;4990181;28;20084;-76
2021/09/27 08:51:15;;;;;;;4.68;2.03;;;16.00;99.90;;;;;;4990253;28;20392;-76
2021/09/27 08:53:46;;;;;;;4.93;1.52;;;16.00;99.90;;;;;;4980622;28;20030;-76
2021/09/27 08:56:34;;;;;;;5.65;1.55;;;16.10;99.90;;;;;;4989703;28;20026;-76
2021/09/27 08:59:31;;;;;;;5.15;1.40;;;16.10;99.90;;;;;;4992441;28;20034;-74
2021/09/27 09:02:20;;;;;;;4.35;1.67;;;16.10;99.90;;;;;;4991291;28;20038;-74
2021/09/27 09:05:05;;;;;;;1.93;0.83;;;16.20;99.90;;;;;;4986040;28;20022;-74
2021/09/27 09:07:33;;;;;;;4.10;1.63;;;16.20;99.90;;;;;;4988855;28;20281;-74
2021/09/27 09:10:06;;;;;;;4.18;1.40;;;16.30;99.90;;;;;;4988443;28;20034;-74
2021/09/27 09:12:54;;;;;;;3.22;1.10;;;16.30;99.90;;;;;;4987905;28;20114;-74
2021/09/27 09:15:28;;;;;;;6.25;1.65;;;16.50;99.90;;;;;;4981113;28;20044;-72
2021/09/27 09:18:17;;;;;;;4.03;1.70;;;16.50;99.90;;;;;;4987755;28;20049;-73
2021/09/27 09:20:52;;;;;;;4.75;1.52;;;16.60;99.90;;;;;;4979230;28;20049;-74
2021/09/27 09:23:44;;;;;;;5.00;1.45;;;16.60;99.90;;;;;;4980096;28;20026;-74
2021/09/27 09:26:16;;;;;;;3.10;1.15;;;16.60;99.90;;;;;;4977675;28;20062;-74
2021/09/27 09:28:46;;;;;;;5.47;1.77;;;16.60;99.90;;;;;;4987676;28;20433;-73
2021/09/27 09:31:22;;;;;;;5.47;1.33;;;16.60;99.90;;;;;;4988547;28;20555;-74
2021/09/27 09:33:54;;;;;;;5.20;1.52;;;16.70;99.90;;;;;;4983353;28;20109;-74
2021/09/27 09:36:40;;;;;;;3.78;1.30;;;16.70;99.90;;;;;;4989089;28;20598;-74
2021/09/27 09:39:31;;;;;;;4.38;1.40;;;16.80;99.90;;;;;;4991857;28;20073;-74
2021/09/27 09:42:22;;;;;;;6.22;1.75;;;16.80;99.90;;;;;;4981642;28;20031;-74
2021/09/27 09:44:49;;;;;;;;;;;16.80;99.90;;;;;;4989967;28;20093;-74
2021/09/27 09:47:25;;;;;;;5.88;1.42;;;16.90;99.90;;;;;;4987433;28;19941;-74
2021/09/27 09:50:01;;;;;;;4.85;1.10;;;17.00;99.90;;;;;;4989940;28;20033;-74
2021/09/27 09:52:33;;;;;;;4.43;1.20;;;17.00;99.90;;;;;;4990355;28;20488;-72
2021/09/27 09:54:59;;;;;;;3.63;1.20;;;17.10;99.90;;;;;;4987916;28;20046;-74
2021/09/27 09:57:34;;;;;;;3.20;0.80;;;17.10;99.90;;;;;;4986978;28;20033;-73
2021/09/27 10:00:14;;;;;;;2.38;1.10;;;17.10;99.90;;;;;;4984747;28;20106;-74
2021/09/27 10:02:43;;;;;;;2.13;1.10;;;17.10;99.90;;;;;;4984521;28;20550;-74
2021/09/27 10:05:22;;;;;;;4.45;1.02;;;17.20;99.90;;;;;;4979155;28;20483;-74
2021/09/27 10:07:57;;;;;;;2.47;1.33;;;17.10;99.90;;;;;;4984764;28;20027;-74
2021/09/27 10:10:36;;;;;;;4.28;1.33;;;17.10;99.90;;;;;;4988738;28;20113;-74
2021/09/27 10:13:27;;;;;;;3.38;1.00;;;17.20;99.90;;;;;;4982487;28;20502;-74
2021/09/27 10:15:54;;;;;;;3.78;1.48;;;17.20;99.90;;;;;;4975583;28;20046;-74
2021/09/27 10:18:28;;;;;;;6.18;1.05;;;17.30;99.90;;;;;;4979958;28;20605;-74
2021/09/27 10:21:00;;;;;;;2.78;1.00;;;17.40;99.90;;;;;;4976996;28;20376;-74
2021/09/27 10:23:43;;;;;;;3.78;1.77;;;17.40;99.90;;;;;;4979859;28;20075;-74
2021/09/27 10:26:14;;;;;;;4.32;1.20;;;17.40;99.90;;;;;;4979453;28;20109;-74
2021/09/27 10:28:41;;;;;;;4.43;1.45;;;17.50;99.90;;;;;;4979477;28;20031;-75
2021/09/27 10:31:09;;;;;;;7.28;2.00;;;17.60;99.90;;;;;;4976722;28;20088;-74
2021/09/27 10:33:41;;;;;;;9.82;1.73;;;17.70;99.90;;;;;;4977749;28;20116;-74
2021/09/27 10:36:16;;;;;;;28.83;7.75;;;17.60;99.90;;;;;;4978348;28;20034;-74
2021/09/27 10:38:50;;;;;;;5.93;1.52;;;17.70;99.90;;;;;;4980645;28;20488;-74
2021/09/27 10:41:25;;;;;;;6.60;1.67;;;17.60;99.90;;;;;;4987615;28;20081;-74
2021/09/27 10:43:54;;;;;;;4.25;1.35;;;17.70;99.90;;;;;;4990041;28;20438;-74
2021/09/27 10:46:33;;;;;;;2.87;1.30;;;17.70;99.90;;;;;;4983128;28;20041;-74
2021/09/27 10:49:00;;;;;;;3.63;1.10;;;17.70;99.90;;;;;;4989468;28;20038;-74
2021/09/27 10:51:34;;;;;;;5.85;0.98;;;17.70;99.90;;;;;;4990303;28;20488;-74
2021/09/27 10:54:22;;;;;;;4.97;1.10;;;17.70;99.90;;;;;;4988483;28;20499;-74
2021/09/27 10:56:50;;;;;;;5.18;1.63;;;17.70;99.90;;;;;;4988616;28;20034;-74
2021/09/27 10:59:48;;;;;;;2.25;1.00;;;17.70;99.90;;;;;;4982050;28;20023;-74
2021/09/27 11:02:25;;;;;;;2.35;0.90;;;17.70;99.90;;;;;;4987817;28;20050;-74
2021/09/27 11:05:01;;;;;;;5.43;1.05;;;17.70;99.90;;;;;;4987428;28;20135;-74
2021/09/27 11:07:56;;;;;;;3.80;1.02;;;17.70;99.90;;;;;;4982868;28;20066;-74
2021/09/27 11:10:27;;;;;;;6.07;1.27;;;17.70;99.90;;;;;;4974557;28;20530;-74
2021/09/27 11:12:54;;;;;;;5.05;1.25;;;17.80;99.90;;;;;;4978284;28;20045;-74
2021/09/27 11:15:20;;;;;;;6.82;0.82;;;17.70;99.90;;;;;;4981292;28;20030;-73
2021/09/27 11:17:59;;;;;;;6.32;1.02;;;17.70;99.90;;;;;;4980018;28;20034;-73
2021/09/27 11:20:50;;;;;;;4.13;1.58;;;17.70;99.90;;;;;;4980925;28;20448;-74
2021/09/27 11:23:25;;;;;;;3.00;1.20;;;17.80;99.90;;;;;;4980793;28;20041;-72
2021/09/27 11:26:19;;;;;;;3.53;1.00;;;17.80;99.90;;;;;;4980509;28;20089;-75
2021/09/27 11:28:49;;;;;;;2.83;1.13;;;17.80;99.90;;;;;;4980311;28;20030;-74
2021/09/27 11:31:38;;;;;;;6.05;1.83;;;17.80;99.90;;;;;;4980445;28;20065;-74
2021/09/27 11:34:52;;;;;;;5.50;1.05;;;17.90;99.90;;;;;;4979258;28;20109;-75
2021/09/27 11:37:29;;;;;;;2.88;1.08;;;17.90;99.90;;;;;;4976840;28;20070;-74
2021/09/27 11:40:07;;;;;;;6.72;1.73;;;18.00;99.90;;;;;;4978157;28;20030;-75
2021/09/27 11:42:41;;;;;;;3.75;1.10;;;17.90;99.90;;;;;;4984132;28;20505;-74
2021/09/27 11:45:23;;;;;;;3.15;1.05;;;18.00;99.90;;;;;;4979091;28;20735;-73
2021/09/27 11:48:00;;;;;;;3.95;1.20;;;18.00;99.90;;;;;;4980723;28;20398;-72
2021/09/27 11:50:30;;;;;;;4.47;1.20;;;18.00;99.90;;;;;;4975002;28;20034;-73
2021/09/27 11:53:15;;;;;;;;;;;18.00;99.90;;;;;;4978301;28;20053;-74
2021/09/27 11:55:55;;;;;;;6.90;1.42;;;18.00;99.90;;;;;;4976081;28;20298;-75
2021/09/27 11:58:29;;;;;;;4.30;1.75;;;18.10;99.90;;;;;;4979152;28;20034;-75
2021/09/27 12:01:13;;;;;;;2.53;0.90;;;18.00;99.90;;;;;;4989693;28;20053;-75
2021/09/27 12:04:08;;;;;;;7.00;1.67;;;18.00;99.90;;;;;;4981686;28;20050;-76
2021/09/27 12:06:42;;;;;;;3.10;0.68;;;18.10;99.90;;;;;;4979198;28;20053;-75
2021/09/27 12:09:15;;;;;;;2.33;0.63;;;18.10;99.90;;;;;;4978317;28;20038;-76
2021/09/27 12:11:49;;;;;;;2.90;0.93;;;18.10;99.90;;;;;;4980410;28;20615;-76
2021/09/27 12:14:45;;;;;;;2.33;0.85;;;18.20;99.90;;;;;;4979327;28;20034;-75
2021/09/27 12:17:17;;;;;;;2.25;0.73;;;18.20;99.90;;;;;;4973271;28;20419;-76
2021/09/27 12:19:58;;;;;;;3.13;0.80;;;18.20;99.90;;;;;;4982784;28;20503;-76
2021/09/27 12:22:33;;;;;;;6.00;0.95;;;18.20;99.90;;;;;;4993105;28;20038;-75
2021/09/27 12:25:11;;;;;;;4.00;0.65;;;18.20;99.90;;;;;;4973089;28;20522;-75
2021/09/27 12:28:07;;;;;;;4.63;0.80;;;18.20;99.90;;;;;;4988105;28;20682;-75
2021/09/27 12:30:39;;;;;;;1.40;0.68;;;18.20;99.90;;;;;;4986718;28;20051;-75
2021/09/27 12:33:10;;;;;;;2.97;0.60;;;18.20;99.90;;;;;;4982301;28;20096;-75
2021/09/27 12:35:40;;;;;;;4.32;1.20;;;18.10;99.90;;;;;;4979886;28;20042;-76
2021/09/27 12:38:06;;;;;;;3.15;0.50;;;18.10;99.90;;;;;;4981449;28;20065;-76
2021/09/27 12:40:37;;;;;;;3.08;0.65;;;18.10;99.90;;;;;;4974328;28;20466;-76
2021/09/27 12:43:30;;;;;;;3.85;0.93;;;18.10;99.90;;;;;;4977196;28;20377;-76
2021/09/27 12:46:00;;;;;;;4.57;1.15;;;18.20;99.90;;;;;;4986494;28;20029;-76
2021/09/27 12:48:39;;;;;;;3.03;0.60;;;18.30;99.90;;;;;;4988252;28;20432;-76
2021/09/27 12:51:32;;;;;;;2.33;0.60;;;18.20;99.90;;;;;;4988170;28;20045;-80
2021/09/27 12:54:24;;;;;;;1.58;0.63;;;18.20;99.90;;;;;;4977921;28;20082;-76
2021/09/27 12:56:52;;;;;;;2.35;0.70;;;18.10;99.90;;;;;;4984707;28;20517;-75
2021/09/27 12:59:21;;;;;;;3.85;0.50;;;18.10;99.90;;;;;;4984513;28;20023;-78
2021/09/27 13:01:51;;;;;;;4.07;1.13;;;18.10;99.90;;;;;;4989175;28;20034;-77
2021/09/27 13:04:50;;;;;;;3.17;0.70;;;18.10;99.90;;;;;;4991223;28;20029;-76
2021/09/27 13:07:18;;;;;;;5.20;1.13;;;18.20;99.90;;;;;;4983714;28;20187;-76
2021/09/27 13:10:03;;;;;;;2.17;0.50;;;18.20;99.90;;;;;;4979439;28;20038;-76
2021/09/27 13:12:35;;;;;;;1.77;0.70;;;18.20;99.90;;;;;;4984392;28;20412;-74
2021/09/27 13:15:12;;;;;;;1.85;0.50;;;18.10;99.90;;;;;;4983876;28;20069;-77
2021/09/27 13:18:04;;;;;;;3.40;0.95;;;18.10;99.70;;;;;;4982239;28;20023;-77
2021/09/27 13:20:43;;;;;;;3.20;0.88;;;18.10;99.90;;;;;;4982672;28;20153;-73
2021/09/27 13:23:08;;;;;;;1.00;0.40;;;18.10;99.90;;;;;;4979105;28;20153;-76
2021/09/27 13:25:43;;;;;;;0.73;0.40;;;18.10;99.90;;;;;;4979677;28;20120;-73
2021/09/27 13:28:20;;;;;;;2.67;0.82;;;18.20;99.90;;;;;;4979481;28;20139;-75
2021/09/27 13:31:05;;;;;;;4.63;0.90;;;18.10;99.90;;;;;;4985482;28;20046;-72
2021/09/27 13:33:50;;;;;;;2.42;0.65;;;18.10;99.90;;;;;;4981141;28;20077;-75
2021/09/27 13:36:41;;;;;;;2.08;0.70;;;18.10;99.90;;;;;;4980012;28;20054;-74